Pagina principală
METAR-TAF:

METAR-TAF

Aeroporturi :

Phenian, Coreea de Nord

Latitudine: 39-02N, longitudine: 125-47E, elevație: 36 m

METAR: lipsă

Ora: 18:53 (09:53 UTC)

Prognoză

Raportul a fost făcut în urmă cu 5 ore și 53 de minute, la 04:00 UTC
Prognoză valabilă de la 17 ora 06 UTC la 18 ora 06 UTC
Vânt 16 kt de la Sud
Vizibilitate: 6000 m
Total acoperit la o înălțime de 1700 picior
ploaie slabă
Temporar
de la 17 ora 10 UTC la 17 ora 20 UTC
Vizibilitate: 2000 m
Total acoperit la o înălțime de 1000 picior, Cumulonimbus.
averse de ploaie slabă,

TAF: ZKPY 170400Z 1706/1806 17008MPS 6000 -RA OVC017 TX27/1706Z TN23/1721Z TEMPO 1710/1720 2000 -SHRA OVC010CB

Observații și prognoze meteo pentru peste 4.000 de aeroporturi (rapoarte METAR și TAF).

Stațiile disponibile sunt reprezentate pe hartă prin puncte galbene și roșii.

Țineți indicatorul mouse-ului pe punctul dorit pentru a vedea denumirea stației.

Apoi, faceți clic pentru a vedea observațiile și prognozele meteorologice.

Pentru a schimba harta: Pentru mărire, faceți clic pe butoanele verzi cu cruce neagră; pentru micșorare, pe butonul verde cu o liniuță; pentru hărți învecinate, pe săgețile verzi.


METAR-TAF: